• Join FlightAware (Why Join?)
  • Login
  • US Flag 
11:32AM EDT


 

Airport Tracker/Info


-or-


 

Live Flight TrackerFlight Track Log ✈ AAL2461 ✈ 11-Apr-2013 ✈ KDFW - KLAX

Flight Track Log - Related Links

Times and Time Zones

All times are in EDT time to prevent confusion due to time zone crossing. See the AAL2461 flight status page for this flight to view local times or setup timezone preferences in your user account.

Time Position Orientation Groundspeed Altitude Reporting Facility
EDT Latitude Longitude Course Direction KTS MPH feet Rate Location/Type
07:02PM 32.8440 -97.0560 180° South 210 242 3,200  Level FlightAware
07:02PM 32.8220 -97.0560 180° South 221 254 4,300 2,460 Climbing FlightAware
07:03PM 32.7870 -97.0570 181° South 259 298 5,500 2,760 Climbing FlightAware
07:03PM 32.7610 -97.0570 180° South 269 310 6,600 3,480 Climbing FlightAware
07:04PM 32.7200 -97.0630 187° South 260 299 8,700 3,480 Climbing FlightAware
07:04PM 32.7050 -97.0760 216° Southwest 257 296 9,500 2,640 Climbing FlightAware
07:04PM 32.6980 -97.0880 235° Southwest 258 297 9,800 1,200 Climbing FlightAware
07:04PM 32.6920 -97.1060 248° West 259 298 10,000 360 Climbing FlightAware
07:05PM 32.6990 -97.1500 281° West 256 295 10,100 60 Climbing FlightAware
07:05PM 32.7130 -97.1990 289° West 250 288 10,100  Level FlightAware
07:06PM 32.7310 -97.2610 289° West 251 289 10,100 1,200 Level FlightAware
07:07PM 32.7460 -97.3140 289° West 258 297 11,800 2,880 Climbing FlightAware
07:07PM 32.7610 -97.3680 288° West 265 305 14,000 3,300 Climbing FlightAware
07:08PM 32.7790 -97.4310 289° West 268 308 16,500 3,000 Climbing FlightAware
07:09PM 32.7940 -97.4820 289° West 273 314 18,300 2,820 Climbing FlightAware
07:10PM 32.8140 -97.5530 289° West 293 337 20,500 2,820 Climbing FlightAware
07:10PM 32.8310 -97.6130 289° West 297 342 22,300 2,160 Climbing FlightAware
07:11PM 32.8510 -97.6730 292° West 319 367 23,400 1,800 Climbing FlightAware
07:12PM 32.8870 -97.7770 292° West 342 394 25,300 1,920 Climbing FlightAware
07:13PM 32.9110 -97.8470 292° West 349 402 26,600 1,440 Climbing FlightAware
07:13PM 32.9410 -97.9340 292° West 353 406 27,500 1,380 Climbing FlightAware
07:14PM 32.9720 -98.0250 292° West 364 419 28,900 2,220 Climbing FlightAware
07:15PM 32.9920 -98.0840 292° West 376 433 30,500 1,740 Climbing FlightAware
07:16PM 33.0280 -98.1880 292° West 379 436 31,400 540 Climbing FlightAware
07:16PM 33.0500 -98.2540 292° West 379 436 31,400 2,100 Level FlightAware
07:17PM 33.0840 -98.3540 292° West 383 441 34,200 2,880 Climbing FlightAware
07:18PM 33.1120 -98.4380 292° West 378 435 35,500 1,080 Climbing FlightAware
07:19PM 33.1490 -98.5460 292° West 379 436 36,000 300 Climbing FlightAware
07:19PM 33.1730 -98.6170 292° West 376 433 36,000  Level FlightAware
07:20PM 33.2040 -98.7110 292° West 370 426 36,000  Level FlightAware
07:21PM 33.2290 -98.7860 292° West 369 425 36,000  Level FlightAware
07:22PM 33.2630 -98.8880 292° West 370 426 36,000  Level FlightAware
07:23PM 33.3020 -99.0040 292° West 371 427 36,000  Level FlightAware
07:23PM 33.3270 -99.0790 292° West 373 429 36,000  Level FlightAware
07:24PM 33.3470 -99.1410 291° West 373 429 36,000  Level FlightAware
07:25PM 33.3730 -99.2230 291° West 373 429 36,000  Level FlightAware
07:25PM 33.3940 -99.2880 291° West 373 429 36,000  Level FlightAware
07:26PM 33.4150 -99.3540 291° West 373 429 36,000  Level FlightAware
07:27PM 33.4360 -99.4200 291° West 373 429 36,000  Level FlightAware
07:27PM 33.4570 -99.4850 291° West 373 429 36,000  Level FlightAware
07:28PM 33.4830 -99.5670 291° West 373 429 36,000  Level FlightAware
07:29PM 33.5040 -99.6330 291° West 373 429 36,000  Level FlightAware
07:30PM 33.5250 -99.6990 291° West 373 429 36,000  Level FlightAware
07:30PM 33.5460 -99.7640 291° West 373 429 36,000  Level FlightAware
07:31PM 33.5670 -99.8300 291° West 373 429 36,000  Level FlightAware
07:32PM 33.5940 -99.9120 292° West 373 429 36,000  Level FlightAware
07:32PM 33.6150 -99.9780 291° West 373 429 36,000  Level FlightAware
07:33PM 33.6360 -100.0440 291° West 373 429 36,000  Level FlightAware
07:33PM 33.7050 -100.2447 291° West 378 435 36,000  Level Fort Worth Center
07:34PM 33.7419 -100.3633 291° West 378 435 36,000  Level Fort Worth Center
07:35PM 33.7789 -100.4772 291° West 378 435 36,000  Level Fort Worth Center
07:36PM 33.8178 -100.5936 292° West 373 429 36,000  Level Fort Worth Center
07:37PM 33.8522 -100.7097 290° West 373 429 36,000  Level Fort Worth Center
07:38PM 33.8869 -100.8236 290° West 373 429 36,000  Level Fort Worth Center
07:39PM 33.9233 -100.9378 291° West 373 429 36,000  Level Fort Worth Center
07:40PM 33.9614 -101.0619 290° West 374 430 36,000  Level Fort Worth Center
07:41PM 33.9956 -101.1761 290° West 369 425 36,000  Level Fort Worth Center
07:42PM 34.0319 -101.2881 291° West 369 425 36,000  Level Fort Worth Center
07:43PM 34.0658 -101.3997 290° West 364 419 36,000  Level Fort Worth Center
07:44PM 34.1019 -101.5144 291° West 357 411 36,000  Level Fort Worth Center
07:45PM 34.1317 -101.6211 289° West 352 405 36,000  Level Fort Worth Center
07:46PM 34.1675 -101.7358 291° West 357 411 36,000  Level Fort Worth Center
07:47PM 34.2031 -101.8481 291° West 357 411 36,000  Level Fort Worth Center
07:48PM 34.2325 -101.9600 288° West 357 411 36,000  Level Fort Worth Center
07:49PM 34.2661 -102.0697 290° West 357 411 36,000  Level Fort Worth Center
07:50PM 34.3014 -102.1825 291° West 352 405 36,000  Level Fort Worth Center
07:51PM 34.3092 -102.2075 291° West 355 409 36,000  Level Albuquerque Center
07:52PM 34.3433 -102.3206 290° West 357 411 36,000  Level Albuquerque Center
07:53PM 34.3772 -102.4336 290° West 356 410 36,000  Level Albuquerque Center
07:54PM 34.4103 -102.5475 289° West 357 411 36,000  Level Albuquerque Center
07:55PM 34.4503 -102.6853 289° West 360 414 36,000  Level Albuquerque Center
07:56PM 34.4844 -102.8022 290° West 365 420 36,000  Level Albuquerque Center
07:57PM 34.5075 -102.9108 284° West 361 415 36,000  Level Albuquerque Center
07:58PM 34.5267 -103.0311 281° West 361 415 36,000  Level Albuquerque Center
07:59PM 34.5467 -103.1728 280° West 362 417 36,000  Level Albuquerque Center
08:00PM 34.5664 -103.2956 281° West 365 420 36,000  Level Albuquerque Center
08:01PM 34.5844 -103.4169 280° West 363 418 36,000  Level Albuquerque Center
08:02PM 34.6014 -103.5389 280° West 364 419 36,000  Level Albuquerque Center
08:03PM 34.6206 -103.6597 281° West 361 415 36,000  Level Albuquerque Center
08:04PM 34.6378 -103.7819 280° West 362 417 36,000  Level Albuquerque Center
08:05PM 34.6558 -103.9042 280° West 363 418 36,000  Level Albuquerque Center
08:06PM 34.6739 -104.0272 280° West 365 420 36,000  Level Albuquerque Center
08:07PM 34.6911 -104.1506 280° West 366 421 36,000  Level Albuquerque Center
08:08PM 34.7086 -104.2733 280° West 365 420 36,000  Level Albuquerque Center
08:09PM 34.7292 -104.4172 280° West 365 420 36,000  Level Albuquerque Center
08:10PM 34.7472 -104.5419 280° West 368 423 36,000  Level Albuquerque Center
08:11PM 34.7642 -104.6664 279° West 369 425 36,000  Level Albuquerque Center
08:12PM 34.7814 -104.7903 280° West 368 423 36,000  Level Albuquerque Center
08:13PM 34.7986 -104.9131 280° West 365 420 36,000  Level Albuquerque Center
08:14PM 34.8161 -105.0347 280° West 363 418 36,000  Level Albuquerque Center
08:21PM 34.9180 -105.8070 280° West 367 422 36,000  Level FlightAware
08:21PM 34.9260 -105.8780 278° West 368 423 36,000  Level FlightAware
08:22PM 34.9340 -105.9480 278° West 368 423 36,000  Level FlightAware
08:23PM 34.9510 -106.0670 280° West 368 423 36,000  Level FlightAware
08:24PM 34.9630 -106.1540 280° West 369 425 36,000  Level FlightAware
08:24PM 34.9740 -106.2460 278° West 369 425 36,000  Level FlightAware
08:25PM 34.9840 -106.3260 279° West 370 426 36,000  Level FlightAware
08:26PM 34.9950 -106.4100 279° West 371 427 36,000  Level FlightAware
08:26PM 35.0070 -106.5040 279° West 372 428 36,000  Level FlightAware
08:27PM 35.0170 -106.5860 278° West 371 427 36,000  Level FlightAware
08:28PM 35.0280 -106.6790 278° West 370 426 36,000  Level FlightAware
08:28PM 35.0380 -106.7600 279° West 370 426 36,000  Level FlightAware
08:29PM 35.0430 -106.8430 274° West 368 423 36,000  Level FlightAware
08:30PM 35.0420 -106.9390 269° West 368 423 36,000  Level FlightAware
08:31PM 35.0390 -107.0200 267° West 368 423 36,000  Level FlightAware
08:31PM 35.0370 -107.1040 268° West 367 422 36,000  Level FlightAware
08:32PM 35.0350 -107.1960 269° West 369 425 36,000  Level FlightAware
08:33PM 35.0320 -107.2780 267° West 368 423 36,000  Level FlightAware
08:33PM 35.0290 -107.3750 268° West 370 426 36,000  Level FlightAware
08:34PM 35.0270 -107.4560 268° West 371 427 36,000  Level FlightAware
08:35PM 35.0240 -107.5420 268° West 372 428 36,000  Level FlightAware
08:35PM 35.0210 -107.6330 268° West 373 429 36,000  Level FlightAware
08:36PM 35.0190 -107.7160 268° West 372 428 36,000  Level FlightAware
08:37PM 35.0150 -107.8140 267° West 374 430 36,000  Level FlightAware
08:38PM 35.0130 -107.8940 268° West 373 429 36,000  Level FlightAware
08:38PM 35.0090 -107.9820 267° West 373 429 36,000  Level FlightAware
08:39PM 35.0060 -108.0750 268° West 374 430 36,000  Level FlightAware
08:40PM 35.0020 -108.1920 268° West 376 433 36,000  Level FlightAware
08:41PM 34.9990 -108.2760 268° West 377 434 36,000  Level FlightAware
08:41PM 34.9950 -108.3680 267° West 377 434 36,000  Level FlightAware
08:42PM 34.9910 -108.4550 267° West 377 434 36,000  Level FlightAware
08:43PM 34.9880 -108.5400 268° West 376 433 36,000  Level FlightAware
08:43PM 34.9850 -108.6170 267° West 376 433 36,000  Level FlightAware
08:44PM 34.9820 -108.6890 267° West 376 433 36,000  Level FlightAware
08:45PM 34.9760 -108.8140 267° West 371 427 36,000  Level FlightAware
08:45PM 34.9730 -108.8960 267° West 370 426 36,000  Level FlightAware
08:46PM 34.9690 -108.9800 267° West 369 425 36,000  Level FlightAware
08:47PM 34.9650 -109.0570 266° West 368 423 36,000  Level FlightAware
08:47PM 34.9610 -109.1410 267° West 368 423 36,000  Level FlightAware
08:48PM 34.9560 -109.2240 266° West 368 423 36,000  Level FlightAware
08:49PM 34.9510 -109.3120 266° West 368 423 36,000  Level FlightAware
08:50PM 34.9470 -109.3830 266° West 368 423 36,000  Level FlightAware
08:50PM 34.9430 -109.4530 266° West 368 423 36,000  Level FlightAware
08:51PM 34.9390 -109.5230 266° West 368 423 36,000  Level FlightAware
08:52PM 34.9350 -109.5940 266° West 368 423 36,000  Level FlightAware
08:53PM 34.9300 -109.6820 266° West 368 423 36,000  Level FlightAware
08:53PM 34.9260 -109.7520 266° West 368 423 36,000  Level FlightAware
08:54PM 34.9220 -109.8230 266° West 368 423 36,000  Level FlightAware
08:55PM 34.9180 -109.8930 266° West 368 423 36,000  Level FlightAware
08:55PM 34.9140 -109.9640 266° West 368 423 36,000  Level FlightAware
08:56PM 34.9090 -110.0520 266° West 368 423 36,000  Level FlightAware
08:57PM 34.9050 -110.1220 266° West 368 423 36,000  Level FlightAware
08:57PM 34.9010 -110.1930 266° West 368 423 36,000  Level FlightAware
09:02PM 34.7910 -110.9590 260° West 372 428 36,000  Level FlightAware
09:03PM 34.7810 -111.0440 262° West 373 429 36,000  Level FlightAware
09:03PM 34.7720 -111.1100 261° West 373 429 36,000  Level FlightAware
09:04PM 34.7610 -111.1980 261° West 373 429 36,000  Level FlightAware
09:05PM 34.7480 -111.2970 261° West 372 428 36,000  Level FlightAware
09:06PM 34.7360 -111.3940 261° West 372 428 36,000  Level FlightAware
09:06PM 34.7270 -111.4630 261° West 373 429 36,000  Level FlightAware
09:07PM 34.7140 -111.5570 260° West 375 432 36,000  Level FlightAware
09:08PM 34.7030 -111.6450 261° West 375 432 36,000  Level FlightAware
09:08PM 34.6910 -111.7390 261° West 377 434 36,000  Level FlightAware
09:09PM 34.6790 -111.8230 260° West 378 435 36,000  Level FlightAware
09:10PM 34.6640 -111.9360 261° West 379 436 36,000  Level FlightAware
09:11PM 34.6520 -112.0290 261° West 380 437 36,000  Level FlightAware
09:11PM 34.6400 -112.1160 261° West 382 440 36,000  Level FlightAware
09:12PM 34.6270 -112.2100 260° West 382 440 36,000  Level FlightAware
09:13PM 34.6160 -112.2940 261° West 383 441 36,000  Level FlightAware
09:14PM 34.6030 -112.3890 261° West 384 442 36,000  Level FlightAware
09:14PM 34.5910 -112.4760 261° West 384 442 36,000  Level FlightAware
09:15PM 34.5790 -112.5610 260° West 384 442 36,000  Level FlightAware
09:16PM 34.5660 -112.6540 260° West 385 443 36,000  Level FlightAware
09:16PM 34.5540 -112.7390 260° West 385 443 36,000  Level FlightAware
09:17PM 34.5410 -112.8340 261° West 385 443 36,000  Level FlightAware
09:18PM 34.5280 -112.9220 260° West 386 444 36,000  Level FlightAware
09:18PM 34.5150 -113.0160 260° West 385 443 36,000  Level FlightAware
09:19PM 34.5030 -113.1020 260° West 384 442 36,000  Level FlightAware
09:20PM 34.4910 -113.1860 260° West 385 443 36,000  Level FlightAware
09:21PM 34.4770 -113.2840 260° West 384 442 36,000  Level FlightAware
09:21PM 34.4650 -113.3680 260° West 384 442 36,000  Level FlightAware
09:22PM 34.4530 -113.4490 260° West 383 441 36,000  Level FlightAware
09:22PM 34.4430 -113.5200 260° West 384 442 36,000  Level FlightAware
09:23PM 34.4270 -113.6270 260° West 384 442 36,000  Level FlightAware
09:24PM 34.4120 -113.7270 260° West 388 447 36,000  Level FlightAware
09:25PM 34.4010 -113.8070 261° West 386 444 36,000  Level FlightAware
09:25PM 34.3890 -113.8840 259° West 384 442 36,000  Level FlightAware
09:26PM 34.3770 -113.9690 260° West 384 442 36,000  Level FlightAware
09:27PM 34.3620 -114.0660 259° West 381 438 36,000  Level FlightAware
09:28PM 34.3470 -114.1690 260° West 379 436 36,000  Level FlightAware
09:28PM 34.3340 -114.2530 259° West 380 437 36,000  Level FlightAware
09:29PM 34.3210 -114.3370 259° West 381 438 36,000  Level FlightAware
09:30PM 34.3030 -114.4530 259° West 379 436 36,000  Level FlightAware
09:31PM 34.2920 -114.5230 259° West 379 436 36,000  Level FlightAware
09:31PM 34.2800 -114.5940 258° West 379 436 36,000  Level FlightAware
09:32PM 34.2690 -114.6650 259° West 379 436 36,000  Level FlightAware
09:33PM 34.2550 -114.7700 261° West 343 395 36,000  Level FlightAware
09:34PM 34.2380 -114.8780 259° West 339 390 36,000 -420 Level FlightAware
09:34PM 34.2250 -114.9650 260° West 344 396 35,300 -780 Descending FlightAware
09:35PM 34.2220 -115.0660 268° West 337 388 34,700 -600 Descending FlightAware
09:36PM 34.2300 -115.1480 277° West 338 389 34,300 -300 Descending FlightAware
09:37PM 34.2370 -115.2110 278° West 338 389 34,300 -2,580 Level FlightAware
09:37PM 34.2290 -115.3150 265° West 385 443 30,900 -3,000 Descending FlightAware
09:38PM 34.2130 -115.4140 259° West 381 438 30,100 -1,080 Descending FlightAware
09:39PM 34.2020 -115.4810 259° West 380 437 29,500 -960 Descending FlightAware
09:39PM 34.1850 -115.5850 259° West 373 429 28,800 -960 Descending FlightAware
09:40PM 34.1710 -115.6680 258° West 370 426 28,100 -900 Descending FlightAware
09:41PM 34.1580 -115.7470 259° West 368 423 27,600 -960 Descending FlightAware
09:42PM 34.1430 -115.8400 259° West 366 421 26,800 -1,080 Descending FlightAware
09:42PM 34.1310 -115.9210 260° West 366 421 26,100 -1,020 Descending FlightAware
09:43PM 34.1180 -116.0020 259° West 364 419 25,500 -1,020 Descending FlightAware
09:44PM 34.1040 -116.0900 259° West 365 420 24,700 -1,080 Descending FlightAware
09:44PM 34.0920 -116.1680 259° West 364 419 24,000 -540 Descending FlightAware
09:45PM 34.0770 -116.2620 259° West 373 429 24,000  Level FlightAware
09:46PM 34.0650 -116.3430 260° West 372 428 24,000  Level FlightAware
09:46PM 34.0500 -116.4330 259° West 366 421 24,000  Level FlightAware
09:47PM 34.0380 -116.5130 260° West 365 420 24,000  Level FlightAware
09:48PM 34.0240 -116.5940 258° West 397 457 24,000 -120 Level FlightAware
09:49PM 34.0090 -116.6940 260° West 402 463 23,900 -1,140 Descending FlightAware
09:49PM 33.9940 -116.7810 258° West 384 442 22,400 -2,580 Descending FlightAware
09:50PM 33.9800 -116.8710 259° West 355 409 20,300 -2,760 Descending FlightAware
09:51PM 33.9670 -116.9480 259° West 352 405 18,500 -2,340 Descending FlightAware
09:51PM 33.9550 -117.0250 259° West 361 415 17,200 -1,020 Descending FlightAware
09:52PM 33.9400 -117.1160 259° West 355 409 17,100 -120 Descending FlightAware
09:53PM 33.9330 -117.1950 264° West 360 414 17,100 -300 Level FlightAware
09:53PM 33.9270 -117.2740 265° West 352 405 16,700 -1,500 Descending FlightAware
09:54PM 33.9200 -117.3550 264° West 340 391 15,000 -2,160 Descending FlightAware
09:55PM 33.9380 -117.4290 286° West 317 365 13,700 -1,680 Descending FlightAware
09:56PM 33.9640 -117.5010 294° West 301 346 12,700 -1,380 Descending FlightAware
09:56PM 33.9850 -117.5600 293° West 299 344 11,800 -1,380 Descending FlightAware
09:57PM 33.9980 -117.6260 283° West 300 345 10,900 -1,140 Descending FlightAware
09:58PM 33.9920 -117.7000 264° West 297 342 10,200 -960 Descending FlightAware
09:58PM 33.9870 -117.7410 262° West 297 342 9,800 -780 Descending FlightAware
09:59PM 33.9820 -117.7910 263° West 295 339 9,500 -900 Descending FlightAware
09:59PM 33.9770 -117.8400 263° West 290 334 8,900 -1,440 Descending FlightAware
09:59PM 33.9730 -117.8780 263° West 283 326 8,200 -1,680 Descending FlightAware
10:00PM 33.9690 -117.9230 264° West 277 319 7,400 -1,620 Descending FlightAware
10:00PM 33.9670 -117.9470 264° West 262 302 7,000 -1,380 Descending FlightAware
10:01PM 33.9630 -117.9820 262° West 249 287 6,500 -1,200 Descending FlightAware
10:01PM 33.9590 -118.0220 263° West 243 280 5,900 -1,200 Descending FlightAware
10:02PM 33.9550 -118.0570 262° West 237 273 5,400 -1,140 Descending FlightAware
10:02PM 33.9520 -118.0930 264° West 208 239 4,900 -1,020 Descending FlightAware
10:02PM 33.9490 -118.1210 263° West 203 234 4,500 -1,020 Descending FlightAware
10:03PM 33.9450 -118.1550 262° West 198 228 4,000 -1,020 Descending FlightAware
10:03PM 33.9420 -118.1870 264° West 202 232 3,500 -1,140 Descending FlightAware
10:04PM 33.9390 -118.2160 263° West 196 226 3,000 -1,080 Descending FlightAware
10:04PM 33.9380 -118.2300 265° West 196 226 2,800 -1,080 Descending FlightAware
10:05PM 33.9340 -118.2630 262° West 186 214 2,200 -1,020 Descending FlightAware
10:05PM 33.9320 -118.2850 264° West 166 191 1,900 -900 Descending FlightAware
10:05PM 33.9310 -118.2950 263° West 159 183 1,700 -360 Descending FlightAware
10:06PM 33.9280 -118.3160 260° West 159 183 1,700  Level FlightAware